This is the latest recevied weather packets stored in our database for station/object N6GPM. If no packets are shown the sender has not sent any weather packets the latest 10 day(s).
| Time | Temp. | Humidity | Pressure | Rain* | Wind** | Luminosity | Snow |
|---|---|---|---|---|---|---|---|
| 1787785341 | 38.89° C | 21% | 1015.5 hPa | 0 mm | - | 685 W/m² | - |
| 1787785040 | 38.89° C | 22% | 1016 hPa | 0 mm | - | 609 W/m² | - |
| 1787784736 | 38.89° C | 22% | 1015.8 hPa | 0 mm | - | 710 W/m² | - |
| 1787784434 | 38.89° C | 22% | 1015.7 hPa | 0 mm | - | 716 W/m² | - |
| 1787784134 | 38.89° C | 22% | 1016 hPa | 0 mm | - | 721 W/m² | - |
| 1787783830 | 39.44° C | 22% | 1016 hPa | 0 mm | - | 730 W/m² | - |
| 1787783525 | 39.44° C | 22% | 1015.9 hPa | 0 mm | - | 742 W/m² | - |
| 1787783221 | 39.44° C | 23% | 1016.2 hPa | 0 mm | - | 754 W/m² | - |
| 1787782915 | 39.44° C | 22% | 1015.9 hPa | 0 mm | - | 765 W/m² | - |
| 1787782614 | 39.44° C | 22% | 1016.1 hPa | 0 mm | - | 776 W/m² | - |
| 1787782304 | 39.44° C | 22% | 1016 hPa | 0 mm | - | 791 W/m² | - |
| 1787782000 | 38.89° C | 21% | 1016.2 hPa | 0 mm | - | 805 W/m² | - |
| 1787781695 | 39.44° C | 21% | 1016.4 hPa | 0 mm | - | 816 W/m² | - |
| 1787781392 | 39.44° C | 21% | 1016.3 hPa | 0 mm | - | 827 W/m² | - |
| 1787781091 | 40° C | 21% | 1016.3 hPa | 0 mm | - | 840 W/m² | - |
| 1787780791 | 40° C | 20% | 1016.5 hPa | 0 mm | - | 852 W/m² | - |
| 1787780490 | 40° C | 21% | 1016.6 hPa | 0 mm | - | 865 W/m² | - |
| 1787780187 | 40° C | 20% | 1016.6 hPa | 0 mm | - | 876 W/m² | - |
| 1787779881 | 39.44° C | 21% | 1016.8 hPa | 0 mm | - | 889 W/m² | - |
| 1787779576 | 40° C | 19% | 1016.8 hPa | 0 mm | - | 899 W/m² | - |
| 1787779275 | 39.44° C | 19% | 1016.8 hPa | 0 mm | - | 910 W/m² | - |
| 1787778970 | 39.44° C | 20% | 1016.9 hPa | 0 mm | - | 915 W/m² | - |
| 1787778666 | 39.44° C | 19% | 1017 hPa | 0 mm | - | 927 W/m² | - |
| 1787778361 | 38.89° C | 20% | 1017 hPa | 0 mm | - | 935 W/m² | - |
| 1787778058 | 38.89° C | 21% | 1017.2 hPa | 0 mm | - | 940 W/m² | - |
* Rain latest hour (hover to see other rain measurements)
** Current wind speed in m/s (hover to see current wind gust speed)